Time;durP1;ratioP1;P1;durP2;ratioP2;P2;SDS_P1;SDS_P2;PMS_P1;PMS_P2;Temp;Humidity;BMP_temperature;BMP_pressure;BME280_temperature;BME280_humidity;BME280_pressure;Samples;Min_cycle;Max_cycle;Signal;HPM_P1;HPM_P2
2022/05/29 00:00:44;;;;;;;1.08;1.05;;;16.50;99.90;;;;;;5071763;28;20222;-74
2022/05/29 00:03:11;;;;;;;0.90;0.90;;;16.40;99.90;;;;;;5066744;28;20225;-76
2022/05/29 00:05:39;;;;;;;2.70;1.15;;;16.30;99.90;;;;;;5063247;28;20214;-76
2022/05/29 00:08:08;;;;;;;1.23;1.23;;;16.40;99.90;;;;;;5065289;28;20305;-76
2022/05/29 00:10:40;;;;;;;1.00;1.00;;;16.30;99.90;;;;;;5063804;28;20742;-76
2022/05/29 00:13:07;;;;;;;1.00;0.90;;;16.30;99.90;;;;;;5066704;28;20221;-76
2022/05/29 00:15:34;;;;;;;0.90;0.90;;;16.30;99.90;;;;;;5064786;28;20222;-76
2022/05/29 00:18:01;;;;;;;1.00;1.00;;;16.40;99.90;;;;;;5069170;28;20218;-76
2022/05/29 00:20:28;;;;;;;0.90;0.90;;;16.40;99.90;;;;;;5068289;28;20487;-76
2022/05/29 00:22:55;;;;;;;1.35;1.00;;;16.40;99.90;;;;;;5064501;28;20846;-76
2022/05/29 00:25:23;;;;;;;0.90;0.90;;;16.40;99.90;;;;;;5062820;28;20708;-76
2022/05/29 00:27:51;;;;;;;1.10;1.10;;;16.50;99.90;;;;;;5063546;28;20221;-76
2022/05/29 00:30:18;;;;;;;0.80;0.80;;;16.50;99.90;;;;;;5064805;28;20222;-76
2022/05/29 00:32:45;;;;;;;1.00;1.00;;;16.50;99.90;;;;;;5065930;28;20218;-76
2022/05/29 00:35:12;;;;;;;1.00;1.00;;;16.40;99.90;;;;;;5064089;28;20218;-76
2022/05/29 00:37:42;;;;;;;0.90;0.90;;;16.50;99.90;;;;;;5064065;28;20218;-75
2022/05/29 00:40:21;;;;;;;0.93;0.93;;;16.50;99.90;;;;;;5065301;28;20578;-76
2022/05/29 00:42:48;;;;;;;0.90;0.90;;;16.40;99.90;;;;;;5063736;28;20221;-76
2022/05/29 00:45:21;;;;;;;0.90;0.90;;;16.30;99.90;;;;;;5070063;28;20652;-76
2022/05/29 00:47:48;;;;;;;1.00;1.00;;;16.40;99.90;;;;;;5067437;28;20217;-75
2022/05/29 00:50:19;;;;;;;1.00;0.90;;;16.40;99.90;;;;;;5073133;28;20301;-76
2022/05/29 00:52:46;;;;;;;0.90;0.90;;;16.40;99.90;;;;;;5064608;28;20218;-76
2022/05/29 00:55:16;;;;;;;0.82;0.82;;;16.40;99.90;;;;;;5068688;28;20295;-76
2022/05/29 00:57:46;;;;;;;0.90;0.90;;;16.40;99.90;;;;;;5066971;28;20229;-76
2022/05/29 01:00:15;;;;;;;0.80;0.80;;;16.30;99.90;;;;;;5069206;28;20230;-76
2022/05/29 01:02:45;;;;;;;0.90;0.90;;;16.30;99.90;;;;;;5066969;28;20268;-75
2022/05/29 01:05:15;;;;;;;0.90;0.90;;;16.30;99.90;;;;;;5066457;28;20202;-76
2022/05/29 01:07:44;;;;;;;0.82;0.82;;;16.40;99.90;;;;;;5068914;28;20222;-76
2022/05/29 01:10:11;;;;;;;0.80;0.80;;;16.40;99.90;;;;;;5066650;28;20625;-77
2022/05/29 01:12:52;;;;;;;0.88;0.88;;;16.30;99.90;;;;;;5069668;28;20226;-77
2022/05/29 01:15:31;;;;;;;1.00;1.00;;;16.20;99.90;;;;;;5070155;28;20226;-76
2022/05/29 01:18:10;;;;;;;0.98;0.80;;;16.20;99.90;;;;;;5071097;28;20764;-76
2022/05/29 01:20:54;;;;;;;0.80;0.80;;;16.00;99.90;;;;;;5074992;28;20221;-76
2022/05/29 01:23:40;;;;;;;0.90;0.90;;;16.00;99.90;;;;;;5066237;28;20194;-76
2022/05/29 01:26:41;;;;;;;0.88;0.88;;;16.00;99.90;;;;;;5071608;28;20652;-76
2022/05/29 01:29:14;;;;;;;0.77;0.77;;;16.00;99.90;;;;;;5075319;28;20218;-77
2022/05/29 01:31:49;;;;;;;1.05;1.05;;;16.00;99.90;;;;;;5070474;28;20225;-77
2022/05/29 01:34:26;;;;;;;0.77;0.77;;;15.90;99.90;;;;;;5065779;28;20274;-77
2022/05/29 01:37:14;;;;;;;0.95;0.70;;;15.90;99.90;;;;;;5062765;28;20217;-77
2022/05/29 01:39:55;;;;;;;0.70;0.70;;;15.90;99.90;;;;;;5066820;28;20626;-77
2022/05/29 01:42:31;;;;;;;0.77;0.77;;;16.00;99.90;;;;;;5064709;28;20219;-76
2022/05/29 01:45:06;;;;;;;0.73;0.73;;;16.00;99.90;;;;;;5063007;28;20199;-76
2022/05/29 01:47:40;;;;;;;1.27;1.05;;;16.00;99.90;;;;;;5071347;28;20275;-76
2022/05/29 01:50:11;;;;;;;0.80;0.80;;;16.10;99.90;;;;;;5070543;28;20660;-77
2022/05/29 01:52:47;;;;;;;1.73;0.80;;;16.00;99.90;;;;;;5066400;28;20236;-77
2022/05/29 01:55:18;;;;;;;0.80;0.80;;;15.90;99.90;;;;;;5068613;28;20194;-76
2022/05/29 01:57:50;;;;;;;0.90;0.90;;;15.90;99.90;;;;;;5065581;28;20309;-76
2022/05/29 02:00:20;;;;;;;0.73;0.73;;;16.00;99.90;;;;;;5066462;28;20210;-76
2022/05/29 02:02:51;;;;;;;0.73;0.73;;;16.00;99.90;;;;;;5068652;28;20203;-76
2022/05/29 02:05:23;;;;;;;0.80;0.80;;;15.90;99.90;;;;;;5064215;28;20202;-76
2022/05/29 02:07:57;;;;;;;0.80;0.80;;;15.80;99.90;;;;;;5067962;28;20225;-76
2022/05/29 02:10:31;;;;;;;0.70;0.70;;;15.80;99.90;;;;;;5062360;28;20195;-75
2022/05/29 02:13:05;;;;;;;0.73;0.73;;;15.90;99.90;;;;;;5068119;28;20275;-75
2022/05/29 02:15:39;;;;;;;0.70;0.70;;;15.80;99.90;;;;;;5087284;28;20194;-76
2022/05/29 02:18:12;;;;;;;0.60;0.60;;;15.70;99.90;;;;;;5073174;28;20206;-76
2022/05/29 02:20:45;;;;;;;0.70;0.70;;;15.60;99.90;;;;;;5067919;28;20226;-75
2022/05/29 02:23:18;;;;;;;0.80;0.80;;;15.70;99.90;;;;;;5071769;28;20248;-75
2022/05/29 02:25:46;;;;;;;0.80;0.80;;;15.70;99.90;;;;;;5069822;28;20225;-77
2022/05/29 02:28:17;;;;;;;0.82;0.82;;;15.80;99.90;;;;;;5070644;28;20214;-76
2022/05/29 02:30:50;;;;;;;0.90;0.90;;;15.60;99.90;;;;;;5068412;28;20221;-76
2022/05/29 02:33:22;;;;;;;0.75;0.70;;;15.40;99.90;;;;;;5069746;28;20218;-76
2022/05/29 02:35:57;;;;;;;0.70;0.70;;;15.20;99.90;;;;;;5067246;28;20236;-75
2022/05/29 02:38:34;;;;;;;0.70;0.70;;;15.20;99.90;;;;;;5068761;28;20221;-76
2022/05/29 02:41:10;;;;;;;0.63;0.63;;;15.30;99.90;;;;;;5066201;28;20275;-76
2022/05/29 02:43:44;;;;;;;0.70;0.70;;;15.40;99.90;;;;;;5069032;28;20197;-76
2022/05/29 02:46:18;;;;;;;1.27;0.60;;;15.60;99.90;;;;;;5064963;28;20673;-76
2022/05/29 02:48:52;;;;;;;0.80;0.80;;;15.80;99.90;;;;;;5072469;28;20370;-76
2022/05/29 02:51:25;;;;;;;0.88;0.88;;;15.90;99.90;;;;;;5065220;28;20350;-76
2022/05/29 02:53:52;;;;;;;0.82;0.82;;;15.90;99.90;;;;;;5063402;28;20211;-76
2022/05/29 02:56:20;;;;;;;0.60;0.60;;;15.90;99.90;;;;;;5067033;28;20249;-76
2022/05/29 02:58:49;;;;;;;0.70;0.70;;;15.90;99.90;;;;;;5074091;28;20237;-76
2022/05/29 03:01:29;;;;;;;0.90;0.90;;;15.80;99.90;;;;;;5076018;28;20638;-76
2022/05/29 03:04:10;;;;;;;0.90;0.90;;;15.60;99.90;;;;;;5063130;28;20259;-75
2022/05/29 03:06:46;;;;;;;0.82;0.70;;;15.60;99.90;;;;;;5064646;28;20313;-75
2022/05/29 03:09:39;;;;;;;0.80;0.80;;;15.40;99.90;;;;;;5064985;28;20297;-76
2022/05/29 03:12:15;;;;;;;0.93;0.70;;;15.30;99.90;;;;;;5066251;28;20490;-76
2022/05/29 03:14:48;;;;;;;0.60;0.60;;;15.40;99.90;;;;;;5065808;28;20225;-76
2022/05/29 03:17:25;;;;;;;0.70;0.70;;;15.40;99.90;;;;;;5068492;28;20774;-76
2022/05/29 03:20:00;;;;;;;1.33;0.80;;;15.50;99.90;;;;;;5063004;28;20194;-76
2022/05/29 03:22:36;;;;;;;0.70;0.70;;;15.50;99.90;;;;;;5065287;28;20740;-76
2022/05/29 03:25:09;;;;;;;0.80;0.80;;;15.20;99.90;;;;;;5062529;28;20382;-76
2022/05/29 03:27:40;;;;;;;0.80;0.80;;;14.90;99.90;;;;;;5058763;28;20636;-76
2022/05/29 03:30:11;;;;;;;1.20;1.10;;;14.60;99.90;;;;;;5066170;28;20206;-76
2022/05/29 03:32:40;;;;;;;0.95;0.95;;;14.30;99.90;;;;;;5065602;28;20270;-76
2022/05/29 03:35:18;;;;;;;0.77;0.77;;;14.10;99.90;;;;;;5063318;28;20765;-76
2022/05/29 03:37:45;;;;;;;0.98;0.98;;;14.00;99.90;;;;;;5061322;28;20225;-76
2022/05/29 03:40:13;;;;;;;1.00;1.00;;;13.90;99.90;;;;;;5064225;28;20202;-76
2022/05/29 03:42:40;;;;;;;0.98;0.98;;;14.00;99.90;;;;;;5064766;28;20221;-76
2022/05/29 03:45:09;;;;;;;0.90;0.90;;;14.10;99.90;;;;;;5080566;28;20198;-75
2022/05/29 03:47:36;;;;;;;1.05;1.02;;;14.30;99.90;;;;;;5066619;28;20764;-76
2022/05/29 03:50:06;;;;;;;0.98;0.98;;;14.40;99.90;;;;;;5065608;28;20190;-76
2022/05/29 03:52:34;;;;;;;1.25;1.13;;;14.30;99.90;;;;;;5065694;28;20221;-76
2022/05/29 03:55:03;;;;;;;1.00;1.00;;;14.10;99.90;;;;;;5063933;28;20373;-76
2022/05/29 03:57:30;;;;;;;2.90;1.10;;;13.90;99.90;;;;;;5064200;28;20246;-76
2022/05/29 03:59:57;;;;;;;1.00;0.90;;;13.90;99.90;;;;;;5066016;28;20220;-76
2022/05/29 04:02:24;;;;;;;0.90;0.90;;;13.90;99.90;;;;;;5064314;28;20773;-75
2022/05/29 04:04:51;;;;;;;0.93;0.80;;;13.80;99.90;;;;;;5061919;28;20213;-76
2022/05/29 04:12:03;;;;;;;1.00;1.00;;;13.90;99.90;;;;;;5059332;28;20697;-76
2022/05/29 04:12:53;;;;;;;1.05;1.05;;;14.20;99.90;;;;;;5061145;28;20216;-76
2022/05/29 04:15:20;;;;;;;0.90;0.90;;;14.40;99.90;;;;;;5061848;28;20533;-76
2022/05/29 04:17:47;;;;;;;0.88;0.88;;;14.50;99.90;;;;;;5068471;28;20226;-77
2022/05/29 04:20:14;;;;;;;1.08;1.08;;;14.60;99.90;;;;;;5074556;28;20198;-75
2022/05/29 04:22:42;;;;;;;1.00;1.00;;;14.60;99.90;;;;;;5077167;28;20232;-75
2022/05/29 04:25:10;;;;;;;0.93;0.93;;;14.50;99.90;;;;;;5079882;28;20201;-75
2022/05/29 04:27:37;;;;;;;0.80;0.80;;;14.40;99.90;;;;;;5077861;28;20228;-75
2022/05/29 04:30:05;;;;;;;1.00;1.00;;;14.40;99.90;;;;;;5080744;28;20687;-75
2022/05/29 04:35:36;;;;;;;1.00;1.00;;;14.20;99.90;;;;;;5016057;28;20250;-75
2022/05/29 04:38:05;;;;;;;0.88;0.88;;;14.10;99.90;;;;;;5004369;28;20599;-75
2022/05/29 04:40:32;;;;;;;1.15;0.95;;;14.10;99.90;;;;;;5026246;28;20225;-76
2022/05/29 04:43:00;;;;;;;0.80;0.80;;;14.00;99.90;;;;;;5062706;28;20215;-75
2022/05/29 04:45:27;;;;;;;1.00;0.95;;;14.00;99.90;;;;;;5055727;28;20252;-74
2022/05/29 04:47:54;;;;;;;1.02;1.00;;;14.00;99.90;;;;;;5075575;28;20214;-74
2022/05/29 04:50:22;;;;;;;1.10;1.10;;;13.90;99.90;;;;;;5076319;28;20198;-75
2022/05/29 04:52:50;;;;;;;1.20;1.10;;;13.80;99.90;;;;;;5076184;28;20287;-76
2022/05/29 04:55:19;;;;;;;0.80;0.80;;;13.70;99.90;;;;;;5076135;28;20218;-75
2022/05/29 04:57:46;;;;;;;1.30;1.20;;;13.70;99.90;;;;;;5077283;28;20226;-75
2022/05/29 05:00:14;;;;;;;0.90;0.90;;;13.60;99.90;;;;;;5077993;28;20194;-75
2022/05/29 05:02:42;;;;;;;1.20;1.10;;;13.70;99.90;;;;;;5077177;28;20335;-75
2022/05/29 05:05:10;;;;;;;1.10;1.10;;;13.70;99.90;;;;;;5076439;28;20210;-75
2022/05/29 05:07:38;;;;;;;1.13;0.98;;;13.80;99.90;;;;;;5077628;28;20229;-76
2022/05/29 05:10:06;;;;;;;1.00;1.00;;;13.90;99.90;;;;;;5078212;28;20198;-76
2022/05/29 05:12:35;;;;;;;0.75;0.75;;;13.90;99.90;;;;;;5076935;28;20214;-77
2022/05/29 05:15:02;;;;;;;1.00;1.00;;;14.00;99.90;;;;;;5087369;28;20213;-76
2022/05/29 05:17:29;;;;;;;1.02;1.02;;;13.90;99.90;;;;;;5062169;28;20234;-76
2022/05/29 05:19:56;;;;;;;0.90;0.90;;;13.90;99.90;;;;;;5054986;28;20210;-75
2022/05/29 05:22:23;;;;;;;1.00;1.00;;;13.90;99.90;;;;;;5055116;28;20234;-76
2022/05/29 05:24:50;;;;;;;1.05;1.05;;;13.90;99.90;;;;;;5051456;28;20187;-76
2022/05/29 05:27:17;;;;;;;0.85;0.85;;;13.90;99.90;;;;;;5054784;28;20226;-76
2022/05/29 05:29:45;;;;;;;0.90;0.90;;;13.80;99.90;;;;;;5054353;28;20245;-76
2022/05/29 05:32:13;;;;;;;1.30;1.20;;;13.70;99.90;;;;;;5059016;28;20233;-77
2022/05/29 05:34:40;;;;;;;1.17;1.10;;;13.70;99.90;;;;;;5059391;28;20736;-76
2022/05/29 05:37:08;;;;;;;1.20;1.15;;;13.70;99.90;;;;;;5056280;28;20496;-75
2022/05/29 05:39:35;;;;;;;0.93;0.93;;;13.60;99.90;;;;;;5056565;28;20586;-76
2022/05/29 05:42:02;;;;;;;1.20;1.10;;;13.60;99.90;;;;;;5064478;28;20268;-77
2022/05/29 05:44:29;;;;;;;1.10;1.10;;;13.70;99.90;;;;;;5079092;28;20190;-76
2022/05/29 05:46:57;;;;;;;1.00;1.00;;;13.70;99.90;;;;;;5065218;28;20235;-75
2022/05/29 05:49:25;;;;;;;1.00;1.00;;;13.70;99.90;;;;;;5058782;28;20206;-76
2022/05/29 05:51:54;;;;;;;1.27;1.17;;;13.80;99.90;;;;;;5053305;28;20262;-77
2022/05/29 05:54:21;;;;;;;0.90;0.90;;;13.80;99.90;;;;;;5058454;28;20246;-77
2022/05/29 05:56:51;;;;;;;1.10;1.10;;;13.90;99.90;;;;;;5059630;28;20218;-77
2022/05/29 05:59:18;;;;;;;1.17;1.17;;;13.90;99.90;;;;;;5059965;22;20234;-74
2022/05/29 06:01:46;;;;;;;1.10;1.10;;;13.90;99.90;;;;;;5027497;28;20745;-74
2022/05/29 06:04:15;;;;;;;1.10;1.10;;;13.80;99.90;;;;;;5051973;28;20222;-74
2022/05/29 06:06:42;;;;;;;1.30;1.23;;;13.70;99.90;;;;;;5042312;28;20233;-75
2022/05/29 06:09:09;;;;;;;1.17;1.10;;;13.70;99.90;;;;;;5045919;28;20467;-74
2022/05/29 06:11:39;;;;;;;1.42;1.33;;;13.70;99.90;;;;;;5038748;28;20216;-74
2022/05/29 06:14:07;;;;;;;1.27;1.27;;;13.80;99.90;;;;;;5024146;28;20192;-74
2022/05/29 06:16:34;;;;;;;1.30;1.25;;;13.80;99.90;;;;;;5032979;28;20302;-74
2022/05/29 06:19:02;;;;;;;1.30;1.30;;;13.90;99.90;;;;;;5047364;28;20745;-74
2022/05/29 06:21:31;;;;;;;1.20;1.20;;;13.90;99.90;;;;;;5040192;28;20612;-74
2022/05/29 06:23:58;;;;;;;1.20;1.10;;;13.90;99.90;;;;;;5048314;28;20195;-75
2022/05/29 06:26:25;;;;;;;1.10;1.10;;;14.00;99.90;;;;;;5046007;28;20214;-75
2022/05/29 06:28:52;;;;;;;1.00;1.00;;;14.00;99.90;;;;;;5048950;28;20222;-75
2022/05/29 06:31:19;;;;;;;1.30;1.20;;;14.00;99.90;;;;;;5043610;28;20195;-74
2022/05/29 06:33:46;;;;;;;1.15;1.15;;;14.00;99.90;;;;;;5047287;28;20199;-75
2022/05/29 06:36:15;;;;;;;1.20;1.20;;;13.90;99.90;;;;;;5047841;28;20216;-75
2022/05/29 06:38:46;;;;;;;1.00;1.00;;;13.90;99.90;;;;;;5041822;28;20223;-73
2022/05/29 06:41:14;;;;;;;1.02;1.02;;;13.80;99.90;;;;;;5046846;28;20277;-75
2022/05/29 06:43:41;;;;;;;1.00;1.00;;;13.80;99.90;;;;;;5045404;28;20207;-75
2022/05/29 06:46:10;;;;;;;1.23;1.05;;;13.80;99.90;;;;;;5042049;28;20588;-75
2022/05/29 06:48:38;;;;;;;1.20;1.20;;;13.70;99.90;;;;;;5047476;28;20206;-74
2022/05/29 06:51:06;;;;;;;1.00;1.00;;;13.70;99.90;;;;;;5050045;28;20195;-74
2022/05/29 06:53:33;;;;;;;1.17;1.17;;;13.90;99.90;;;;;;5046356;28;20685;-74
2022/05/29 06:56:02;;;;;;;1.25;1.25;;;13.90;99.90;;;;;;5049423;28;20214;-74
2022/05/29 06:58:29;;;;;;;2.70;1.35;;;14.10;99.90;;;;;;5053886;28;20223;-74
2022/05/29 07:09:04;;;;;;;1.10;1.10;;;14.50;99.90;;;;;;5031614;28;20253;-75
2022/05/29 07:11:35;;;;;;;1.10;1.10;;;14.60;99.90;;;;;;5046020;28;20229;-74
2022/05/29 07:14:04;;;;;;;1.10;1.10;;;14.60;99.90;;;;;;5043374;28;20206;-73
2022/05/29 07:16:31;;;;;;;1.00;1.00;;;14.60;99.90;;;;;;5043213;28;20319;-74
2022/05/29 07:18:59;;;;;;;1.10;1.10;;;14.50;99.90;;;;;;5040324;28;20269;-74
2022/05/29 07:21:28;;;;;;;1.08;1.08;;;14.40;99.90;;;;;;5045295;28;20198;-74
2022/05/29 07:23:55;;;;;;;1.00;1.00;;;14.40;99.90;;;;;;5045488;28;20195;-74
2022/05/29 07:26:22;;;;;;;1.00;1.00;;;14.30;99.90;;;;;;5041192;28;20554;-74
2022/05/29 07:28:51;;;;;;;1.20;1.20;;;14.30;99.90;;;;;;5041629;28;20211;-74
2022/05/29 07:31:18;;;;;;;1.20;1.10;;;14.20;99.90;;;;;;5047738;28;20658;-74
2022/05/29 07:33:45;;;;;;;1.08;1.08;;;14.20;99.90;;;;;;5046469;28;20223;-73
2022/05/29 07:36:13;;;;;;;1.05;1.05;;;14.20;99.90;;;;;;5045642;28;20225;-74
2022/05/29 07:38:41;;;;;;;1.38;1.38;;;14.30;99.90;;;;;;5043187;28;20227;-74
2022/05/29 07:43:51;;;;;;;1.00;1.00;;;14.20;99.90;;;;;;5042777;28;20206;-74
2022/05/29 07:46:19;;;;;;;1.27;1.17;;;14.10;99.90;;;;;;5043533;28;20207;-74
2022/05/29 07:48:46;;;;;;;1.33;1.23;;;14.00;99.90;;;;;;5053457;28;20222;-75
2022/05/29 07:51:13;;;;;;;1.77;1.67;;;13.90;99.90;;;;;;5049553;28;20256;-75
2022/05/29 07:53:40;;;;;;;1.50;1.40;;;13.70;99.90;;;;;;5046727;28;20644;-75
2022/05/29 07:56:08;;;;;;;1.30;1.30;;;13.50;99.90;;;;;;5048384;28;20279;-75
2022/05/29 07:58:38;;;;;;;1.00;1.00;;;13.50;99.90;;;;;;5052495;28;20226;-74
2022/05/29 08:01:06;;;;;;;1.20;1.10;;;13.60;99.90;;;;;;5050595;28;20199;-75
2022/05/29 08:03:33;;;;;;;1.13;1.10;;;13.80;99.90;;;;;;5050485;28;20235;-75
2022/05/29 08:06:00;;;;;;;1.20;1.20;;;14.00;99.90;;;;;;5049397;28;20187;-75
2022/05/29 08:08:29;;;;;;;1.40;1.40;;;14.20;99.90;;;;;;5044705;28;20724;-75
2022/05/29 08:10:57;;;;;;;1.25;1.15;;;14.30;99.90;;;;;;5046981;28;20209;-75
2022/05/29 08:13:24;;;;;;;1.45;1.35;;;14.50;99.90;;;;;;5045911;28;20222;-75
2022/05/29 08:15:51;;;;;;;1.23;1.20;;;14.50;99.90;;;;;;5046033;28;20296;-74
2022/05/29 08:18:20;;;;;;;2.88;1.20;;;14.40;99.90;;;;;;5043458;28;20227;-75
2022/05/29 08:20:47;;;;;;;1.38;1.38;;;14.30;99.90;;;;;;5047158;28;20206;-74
2022/05/29 08:23:14;;;;;;;1.48;1.38;;;14.20;99.90;;;;;;5046250;28;20223;-75
2022/05/29 08:31:10;;;;;;;2.00;1.50;;;14.00;99.90;;;;;;5046625;28;20585;-75
2022/05/29 08:33:39;;;;;;;1.20;1.20;;;14.00;99.90;;;;;;5045153;28;20218;-74
2022/05/29 08:36:09;;;;;;;1.73;1.63;;;14.00;99.90;;;;;;5046104;28;20261;-74
2022/05/29 08:38:38;;;;;;;7.05;3.42;;;13.90;99.90;;;;;;5038754;28;20249;-75
2022/05/29 08:41:08;;;;;;;4.10;2.65;;;13.70;99.90;;;;;;5046738;28;20202;-74
2022/05/29 08:43:38;;;;;;;3.22;2.60;;;13.40;99.90;;;;;;5046212;28;20712;-73
2022/05/29 08:46:10;;;;;;;3.17;2.63;;;13.20;99.90;;;;;;5044948;28;20191;-75
2022/05/29 08:48:38;;;;;;;3.10;2.45;;;13.10;99.90;;;;;;5045800;28;20219;-75
2022/05/29 08:51:18;;;;;;;2.90;2.40;;;13.00;99.90;;;;;;5047047;28;20199;-75
2022/05/29 08:53:53;;;;;;;2.85;2.53;;;12.80;99.90;;;;;;5048285;28;20230;-75
2022/05/29 08:56:27;;;;;;;2.20;2.00;;;12.70;99.90;;;;;;5043653;28;20264;-74
2022/05/29 08:59:12;;;;;;;3.40;2.30;;;12.60;99.90;;;;;;5045491;28;20235;-75
2022/05/29 09:01:51;;;;;;;2.33;2.13;;;12.60;99.90;;;;;;5045882;28;20206;-75
2022/05/29 09:04:33;;;;;;;2.47;2.30;;;12.70;99.90;;;;;;5045275;28;20219;-75
2022/05/29 09:07:03;;;;;;;3.30;2.47;;;13.00;99.90;;;;;;5045847;28;20245;-75
2022/05/29 09:09:38;;;;;;;2.83;2.22;;;13.30;99.90;;;;;;5048286;28;20219;-74
2022/05/29 09:12:08;;;;;;;2.55;2.35;;;13.60;99.90;;;;;;5046957;28;20199;-74
2022/05/29 09:14:44;;;;;;;3.00;2.40;;;13.50;99.90;;;;;;5044848;28;20199;-75
2022/05/29 09:17:18;;;;;;;2.35;2.15;;;13.50;99.90;;;;;;5049177;28;20209;-75
2022/05/29 09:19:52;;;;;;;3.58;2.45;;;13.50;99.90;;;;;;5049045;28;20231;-75
2022/05/29 09:22:23;;;;;;;2.55;2.13;;;13.40;99.90;;;;;;5049539;28;20219;-74
2022/05/29 09:25:04;;;;;;;2.60;2.40;;;13.20;99.90;;;;;;5047170;28;20195;-75
2022/05/29 09:27:32;;;;;;;3.15;2.30;;;13.00;99.90;;;;;;5048353;28;20792;-75
2022/05/29 09:29:59;;;;;;;2.30;2.20;;;13.00;99.90;;;;;;5049376;28;20299;-75
2022/05/29 09:32:29;;;;;;;2.55;2.35;;;13.00;99.90;;;;;;5045996;28;20280;-75
2022/05/29 09:35:07;;;;;;;3.90;2.38;;;13.20;99.90;;;;;;5048816;28;20281;-75
2022/05/29 09:37:50;;;;;;;2.25;2.05;;;13.30;99.90;;;;;;5049340;28;20225;-75
2022/05/29 09:40:22;;;;;;;2.20;2.00;;;13.40;99.90;;;;;;5047982;28;20218;-75
2022/05/29 09:42:52;;;;;;;2.78;2.58;;;13.50;99.90;;;;;;5043879;28;20405;-75
2022/05/29 09:45:27;;;;;;;2.47;2.28;;;13.50;99.90;;;;;;5045053;28;20222;-75
2022/05/29 09:50:48;;;;;;;2.05;1.85;;;13.60;99.90;;;;;;5043579;28;20218;-75
2022/05/29 09:53:19;;;;;;;2.40;2.20;;;13.50;99.90;;;;;;5048280;28;20230;-75
2022/05/29 09:55:51;;;;;;;2.47;2.28;;;13.60;99.90;;;;;;5051120;28;20306;-75
2022/05/29 09:58:24;;;;;;;2.28;2.17;;;13.60;99.90;;;;;;5040197;28;20231;-74
2022/05/29 10:00:57;;;;;;;2.40;2.20;;;13.60;99.90;;;;;;5041886;28;20575;-74
2022/05/29 10:03:38;;;;;;;2.70;2.50;;;13.60;99.90;;;;;;5044561;28;20220;-74
2022/05/29 10:06:14;;;;;;;2.47;2.22;;;13.60;99.90;;;;;;5047958;28;20697;-75
2022/05/29 10:08:41;;;;;;;2.08;1.98;;;13.60;99.90;;;;;;5044455;28;20280;-75
2022/05/29 10:11:19;;;;;;;2.00;1.90;;;13.70;99.90;;;;;;5044669;28;20203;-72
2022/05/29 10:13:47;;;;;;;2.70;2.50;;;13.80;99.90;;;;;;5042816;28;20218;-72
2022/05/29 10:16:31;;;;;;;2.40;2.20;;;13.90;99.90;;;;;;5045123;28;20517;-73
2022/05/29 10:18:58;;;;;;;2.58;1.92;;;14.20;99.90;;;;;;5040998;28;20218;-71
2022/05/29 10:21:29;;;;;;;2.38;2.17;;;14.40;99.90;;;;;;5043634;28;20207;-72
2022/05/29 10:24:12;;;;;;;2.10;2.00;;;14.50;99.90;;;;;;5045229;28;20292;-72
2022/05/29 10:26:39;;;;;;;2.15;1.77;;;14.60;99.90;;;;;;5056349;28;20191;-72
2022/05/29 10:29:17;;;;;;;2.10;2.00;;;14.70;99.90;;;;;;5043029;28;20241;-73
2022/05/29 10:31:49;;;;;;;1.90;1.70;;;15.00;99.90;;;;;;5042210;28;20439;-75
2022/05/29 10:34:24;;;;;;;2.00;1.90;;;15.10;99.90;;;;;;5040525;28;20770;-74
2022/05/29 10:36:53;;;;;;;2.10;2.00;;;15.20;99.90;;;;;;5040158;28;20227;-75
2022/05/29 10:39:23;;;;;;;2.22;1.90;;;15.20;99.90;;;;;;5043011;28;20246;-75
2022/05/29 10:41:52;;;;;;;1.83;1.73;;;15.20;99.90;;;;;;5037383;28;20219;-74
2022/05/29 10:44:42;;;;;;;2.38;1.90;;;15.30;99.90;;;;;;5039742;28;20225;-74
2022/05/29 10:47:20;;;;;;;1.98;1.88;;;15.70;99.90;;;;;;5048122;28;20278;-74
2022/05/29 10:49:59;;;;;;;2.83;1.60;;;15.80;99.90;;;;;;5024895;28;20242;-74
2022/05/29 10:52:45;;;;;;;1.92;1.73;;;15.70;99.90;;;;;;5035955;28;20686;-74
2022/05/29 10:55:32;;;;;;;2.05;1.90;;;15.40;99.90;;;;;;5031367;28;20184;-75
2022/05/29 10:58:26;;;;;;;2.20;2.10;;;15.00;99.90;;;;;;5023953;28;20216;-74
2022/05/29 11:01:04;;;;;;;4.88;2.03;;;14.70;99.90;;;;;;5024728;28;20200;-74
2022/05/29 11:03:51;;;;;;;1.85;1.75;;;14.50;99.90;;;;;;5028501;28;20340;-74
2022/05/29 11:06:48;;;;;;;2.92;2.00;;;14.40;99.90;;;;;;5025117;28;20188;-75
2022/05/29 11:09:54;;;;;;;1.90;1.80;;;14.40;99.90;;;;;;5029149;28;20235;-74
2022/05/29 11:12:30;;;;;;;2.92;2.15;;;14.30;99.90;;;;;;5022324;28;20257;-75
2022/05/29 11:15:10;;;;;;;2.72;2.08;;;14.10;99.90;;;;;;5024279;28;20221;-75
2022/05/29 11:17:48;;;;;;;2.35;2.10;;;14.00;99.90;;;;;;5028368;28;20318;-74
2022/05/29 11:20:28;;;;;;;2.00;1.90;;;14.00;99.90;;;;;;5057616;28;20429;-75
2022/05/29 11:23:10;;;;;;;2.45;2.25;;;13.90;99.90;;;;;;5047748;28;20311;-75
2022/05/29 11:25:48;;;;;;;2.28;1.88;;;13.90;99.90;;;;;;5048738;28;20199;-74
2022/05/29 11:28:44;;;;;;;2.05;1.95;;;14.00;99.90;;;;;;5048097;28;20603;-74
2022/05/29 11:31:25;;;;;;;2.22;1.95;;;14.00;99.90;;;;;;5052025;28;20199;-74
2022/05/29 11:34:06;;;;;;;2.63;1.90;;;13.90;99.90;;;;;;5042912;28;20271;-74
2022/05/29 11:36:50;;;;;;;2.20;2.10;;;13.90;99.90;;;;;;5046690;28;20222;-74
2022/05/29 11:39:30;;;;;;;2.33;2.20;;;13.90;99.90;;;;;;5042255;28;20223;-74
2022/05/29 11:42:05;;;;;;;2.30;2.10;;;13.80;99.90;;;;;;5047863;28;20191;-74
2022/05/29 11:44:40;;;;;;;2.63;2.42;;;13.80;99.90;;;;;;5049375;28;20398;-74
2022/05/29 11:52:58;;;;;;;4.65;2.58;;;13.80;99.90;;;;;;5049337;28;20548;-76
2022/05/29 11:55:29;;;;;;;3.40;2.42;;;13.80;99.90;;;;;;5047905;28;20685;-75
2022/05/29 11:58:02;;;;;;;3.42;2.42;;;13.80;99.90;;;;;;5046742;28;20222;-76
2022/05/29 12:00:39;;;;;;;2.45;2.25;;;13.80;99.90;;;;;;5078787;23;20227;-76
2022/05/29 12:03:36;;;;;;;3.10;2.90;;;13.80;99.90;;;;;;5057567;28;20230;-75
2022/05/29 12:06:10;;;;;;;3.05;2.75;;;13.80;99.90;;;;;;5058093;28;20197;-76
2022/05/29 12:08:47;;;;;;;3.30;2.38;;;13.90;99.90;;;;;;5056565;28;20218;-76
2022/05/29 12:11:32;;;;;;;3.03;2.83;;;14.00;99.90;;;;;;5056298;28;20286;-76
2022/05/29 12:14:08;;;;;;;2.92;2.70;;;13.90;99.90;;;;;;5051743;28;20497;-76
2022/05/29 12:16:39;;;;;;;2.22;2.13;;;13.90;99.90;;;;;;5053968;28;20249;-76
2022/05/29 12:19:11;;;;;;;2.90;2.70;;;14.00;99.90;;;;;;5047254;28;20234;-75
2022/05/29 12:21:43;;;;;;;2.35;2.17;;;14.20;99.90;;;;;;5056853;28;20219;-75
2022/05/29 12:24:15;;;;;;;2.63;2.42;;;14.20;99.90;;;;;;5045069;28;20246;-75
2022/05/29 12:26:47;;;;;;;2.50;2.30;;;14.40;99.90;;;;;;5040892;28;20186;-75
2022/05/29 12:29:22;;;;;;;2.30;2.10;;;14.50;99.90;;;;;;5033573;28;20214;-75
2022/05/29 12:31:55;;;;;;;2.10;2.00;;;14.50;99.90;;;;;;5042186;28;20209;-75
2022/05/29 12:34:25;;;;;;;2.47;2.17;;;14.60;99.90;;;;;;5042732;28;20226;-75
2022/05/29 12:37:25;;;;;;;2.10;2.00;;;14.70;99.90;;;;;;5041352;28;20414;-76
2022/05/29 12:40:30;;;;;;;2.10;2.00;;;14.80;99.90;;;;;;5037395;28;20642;-76
2022/05/29 12:43:33;;;;;;;2.00;1.90;;;14.80;99.90;;;;;;5025280;28;20199;-76
2022/05/29 12:46:11;;;;;;;1.80;1.70;;;14.70;99.90;;;;;;5033066;28;20672;-75
2022/05/29 12:49:14;;;;;;;1.95;1.52;;;14.70;99.90;;;;;;5042848;28;20201;-75
2022/05/29 12:52:09;;;;;;;1.70;1.60;;;14.70;99.90;;;;;;5044025;28;20214;-75
2022/05/29 12:55:14;;;;;;;1.70;1.60;;;14.70;99.90;;;;;;5040012;28;20220;-76
2022/05/29 12:58:06;;;;;;;2.03;1.92;;;14.80;99.90;;;;;;5043025;28;20425;-76
2022/05/29 13:01:11;;;;;;;1.70;1.60;;;15.10;99.90;;;;;;5043013;28;20218;-75
2022/05/29 13:04:17;;;;;;;1.65;1.55;;;15.20;99.90;;;;;;5040583;28;20214;-75
2022/05/29 13:07:05;;;;;;;1.90;1.80;;;15.30;99.90;;;;;;5047097;28;20236;-75
2022/05/29 13:09:59;;;;;;;2.35;2.15;;;15.40;99.90;;;;;;5043777;28;20540;-76
2022/05/29 13:12:29;;;;;;;2.08;1.88;;;15.50;99.90;;;;;;5046224;28;22069;-76
2022/05/29 13:14:59;;;;;;;1.48;1.38;;;15.50;99.90;;;;;;5044908;28;20217;-77
2022/05/29 13:17:31;;;;;;;1.50;1.40;;;15.50;99.90;;;;;;5044674;28;20219;-76
2022/05/29 13:20:11;;;;;;;2.08;1.88;;;15.40;99.90;;;;;;5046171;28;20687;-76
2022/05/29 13:23:01;;;;;;;1.80;1.70;;;15.40;99.90;;;;;;5049750;28;20233;-76
2022/05/29 13:25:32;;;;;;;1.20;1.20;;;15.40;99.90;;;;;;5034297;28;20305;-76
2022/05/29 13:28:01;;;;;;;1.80;1.70;;;15.40;99.90;;;;;;5041288;28;20206;-75
2022/05/29 13:31:02;;;;;;;1.60;1.50;;;15.60;99.90;;;;;;5035332;28;20324;-75
2022/05/29 13:33:53;;;;;;;1.58;1.48;;;15.80;99.90;;;;;;5036102;28;20218;-75
2022/05/29 13:37:06;;;;;;;1.73;1.63;;;15.90;99.90;;;;;;5034267;28;20218;-74
2022/05/29 13:39:51;;;;;;;1.10;1.10;;;16.10;99.90;;;;;;5039635;28;20195;-76
2022/05/29 13:42:35;;;;;;;1.13;1.13;;;16.10;99.90;;;;;;5036261;28;20209;-75
2022/05/29 13:45:43;;;;;;;0.90;0.90;;;16.20;99.90;;;;;;5040251;28;20230;-76
2022/05/29 13:48:18;;;;;;;1.00;1.00;;;16.20;99.90;;;;;;5047112;28;20249;-75
2022/05/29 13:51:12;;;;;;;0.98;0.98;;;16.20;99.90;;;;;;5040316;28;20321;-75